To NAV CANADA Home Page Login to a new session Search on AWWS site Feedback and Comments Disclaimer Vers la page française équivalente Tips FAQ What's new on the site To the Forecasts and Observations / NOTAM section To "File a Flight Plan" website Publications and other links Update of the User's profile FIC Telephone Numbers My Weather Data Folder Route Weather Data Regional Weather Data Local Weather Data To the Forecasts and Observations / NOTAM section
Request Generated 04/20/2015 at 00:46:11 UTC . Weather information available at that time is displayed.

METAR/TAF

YARMOUTH/NS    

METAR CYQI 200000Z 28008KT 15SM FEW250 02/01 A3026 RMK CI1 CI TR
PRESRR SLP249=
METAR CYQI 192300Z 28010KT 15SM FEW020 FEW250 03/02 A3024 RMK SC1CI1
SC TR CI TR SLP240=
METAR CYQI 192200Z 28010KT 15SM FEW020 FEW250 04/02 A3022 RMK SC1CI1
SC TR CI TR SLP236=

TAF CYQI 192338Z 2000/2012 28010KT P6SM FEW020
BECMG 2000/2002 24006KT
FM200600 26008KT P6SM FEW006 PROB30 2006/2010 2SM BR
BECMG 2010/2012 17005KT
RMK NXT FCST BY 200600Z=
Your time UTC time
Weather data provided by Environment Canada and NAV CANADA